createdAt,value
2022-11-12T00:01:11.024Z,37.88
2022-11-12T00:03:58.026Z,38.63
2022-11-12T00:06:31.106Z,38.45
2022-11-12T00:09:18.034Z,37.63
2022-11-12T00:11:51.100Z,37.05
2022-11-12T00:14:38.032Z,37.45
2022-11-12T00:17:11.093Z,36.83
2022-11-12T00:19:58.025Z,35.50
2022-11-12T00:22:38.039Z,37.42
2022-11-12T00:25:32.033Z,39.45
2022-11-12T00:28:26.303Z,39.50
2022-11-12T00:31:19.027Z,36.55
2022-11-12T00:33:59.096Z,38.25
2022-11-12T00:36:53.188Z,36.60
2022-11-12T00:39:47.105Z,36.92
2022-11-12T00:42:34.037Z,37.22
2022-11-12T00:45:07.118Z,37.83
2022-11-12T00:47:54.045Z,36.75
2022-11-12T00:50:34.039Z,38.25
2022-11-12T00:53:28.067Z,37.10
2022-11-12T00:56:23.100Z,38.72
2022-11-12T00:59:17.100Z,37.85
2022-11-12T01:02:11.099Z,37.13
2022-11-12T01:04:58.033Z,40.03
2022-11-12T01:07:31.195Z,37.70
2022-11-12T01:10:19.097Z,35.95
2022-11-12T01:12:52.173Z,37.13
2022-11-12T01:15:46.060Z,37.33
2022-11-12T01:18:19.113Z,37.33
2022-11-12T01:21:18.043Z,37.28
2022-11-12T01:24:07.049Z,37.33
2022-11-12T01:26:47.101Z,35.90
2022-11-12T01:29:41.113Z,37.45
2022-11-12T01:32:28.071Z,33.35
2022-11-12T01:35:01.099Z,35.13
2022-11-12T01:37:48.066Z,35.50
2022-11-12T01:40:21.133Z,34.05
2022-11-12T01:43:08.056Z,32.63
2022-11-12T01:45:42.165Z,33.42
2022-11-12T01:48:36.076Z,29.88
2022-11-12T01:51:12.219Z,31.65
2022-11-12T01:54:03.100Z,30.25
2022-11-12T01:56:42.226Z,30.15
2022-11-12T01:59:37.103Z,29.02
2022-11-12T02:02:10.216Z,30.42
2022-11-12T02:04:58.132Z,30.38
2022-11-12T02:07:32.209Z,29.58
2022-11-12T02:10:19.102Z,30.30
2022-11-12T02:13:18.106Z,29.25
2022-11-12T02:16:12.072Z,30.83
2022-11-12T02:19:06.125Z,27.52
2022-11-12T02:22:00.129Z,29.23
2022-11-12T02:24:54.130Z,27.40
2022-11-12T02:27:41.102Z,26.65
2022-11-12T02:30:14.229Z,27.38
2022-11-12T02:33:01.102Z,25.95
2022-11-12T02:35:41.100Z,25.42
2022-11-12T02:38:35.105Z,26.45
2022-11-12T02:41:29.097Z,26.17
2022-11-12T02:44:16.132Z,25.80
2022-11-12T02:46:49.197Z,24.08
2022-11-12T02:49:36.077Z,22.55
2022-11-12T02:52:09.193Z,23.42
2022-11-12T02:54:56.129Z,23.80
2022-11-12T02:57:37.105Z,22.98
2022-11-12T03:00:25.122Z,24.85
2022-11-12T03:03:08.137Z,24.77
2022-11-12T03:06:13.143Z,24.48
2022-11-12T03:09:07.101Z,24.15
2022-11-12T03:11:47.102Z,22.85
2022-11-12T03:14:27.100Z,22.25
2022-11-12T03:17:00.235Z,22.95
2022-11-12T03:19:54.138Z,21.73
2022-11-12T03:22:41.106Z,21.45
2022-11-12T03:25:15.190Z,21.63
2022-11-12T03:28:09.080Z,23.10
2022-11-12T03:30:44.224Z,23.73
2022-11-12T03:33:31.126Z,23.92
2022-11-12T03:36:04.216Z,23.92
2022-11-12T03:38:51.128Z,24.25
2022-11-12T03:41:31.083Z,23.90
2022-11-12T03:44:18.095Z,23.88
2022-11-12T03:46:57.168Z,20.63
2022-11-12T03:49:44.124Z,22.27
2022-11-12T03:52:17.249Z,21.42
2022-11-12T03:55:04.122Z,21.98
2022-11-12T03:57:37.228Z,22.35
2022-11-12T04:00:25.095Z,20.38
2022-11-12T04:02:59.257Z,21.27
2022-11-12T04:06:04.108Z,21.58
2022-11-12T04:08:44.136Z,21.38
2022-11-12T04:11:39.537Z,20.73
2022-11-12T04:14:33.133Z,20.58
2022-11-12T04:17:50.132Z,19.85
2022-11-12T04:21:02.127Z,19.65
2022-11-12T04:23:49.128Z,20.48
2022-11-12T04:26:32.102Z,19.85
2022-11-12T04:29:37.749Z,20.45
2022-11-12T04:32:11.252Z,21.30
2022-11-12T04:34:58.267Z,21.55
2022-11-12T04:37:44.592Z,22.73
2022-11-12T04:40:52.129Z,21.77
2022-11-12T04:43:43.736Z,18.88
2022-11-12T04:46:30.130Z,18.55
2022-11-12T04:49:03.251Z,20.40
2022-11-12T04:52:08.132Z,20.20
2022-11-12T04:54:41.285Z,19.17
2022-11-12T04:57:28.136Z,19.80
2022-11-12T05:00:08.150Z,19.13
2022-11-12T05:02:57.142Z,20.77
2022-11-12T05:05:33.866Z,19.30
2022-11-12T05:08:21.148Z,18.08
2022-11-12T05:10:54.220Z,18.58
2022-11-12T05:13:41.150Z,18.85
2022-11-12T05:16:14.245Z,15.95
2022-11-12T05:19:01.156Z,17.92
2022-11-12T05:21:52.913Z,19.35
2022-11-12T05:24:47.152Z,20.35
2022-11-12T05:27:23.246Z,18.88
2022-11-12T05:30:11.150Z,18.05
2022-11-12T05:32:44.235Z,18.02
2022-11-12T05:35:31.159Z,17.15
2022-11-12T05:38:06.137Z,16.85
2022-11-12T05:40:53.167Z,17.38
2022-11-12T05:43:26.344Z,18.67
2022-11-12T05:46:13.167Z,19.80
2022-11-12T05:48:46.215Z,20.35
2022-11-12T05:51:33.162Z,18.58
2022-11-12T05:54:07.341Z,18.05
2022-11-12T05:56:58.155Z,18.05
2022-11-12T05:59:34.140Z,19.60
2022-11-12T06:02:21.221Z,17.55
2022-11-12T06:04:54.236Z,24.83
2022-11-12T06:07:41.160Z,19.48
2022-11-12T06:10:22.157Z,19.40
2022-11-12T06:13:16.222Z,17.92
2022-11-12T06:16:03.157Z,17.40
2022-11-12T06:18:36.315Z,16.58
2022-11-12T06:21:31.309Z,17.80
2022-11-12T06:24:18.139Z,16.80
2022-11-12T06:26:59.319Z,17.23
2022-11-12T06:29:53.148Z,17.80
2022-11-12T06:32:40.216Z,17.17
2022-11-12T06:35:14.315Z,17.45
2022-11-12T06:38:02.219Z,15.38
2022-11-12T06:40:35.293Z,17.02
2022-11-12T06:43:22.220Z,17.25
2022-11-12T06:45:55.292Z,17.45
2022-11-12T06:48:42.222Z,17.90
2022-11-12T06:51:32.217Z,16.48
2022-11-12T06:54:26.162Z,18.10
2022-11-12T06:57:20.218Z,16.17
2022-11-12T07:00:14.225Z,16.63
2022-11-12T07:03:01.174Z,17.17
2022-11-12T07:05:34.292Z,15.80
2022-11-12T07:08:21.188Z,14.80
2022-11-12T07:10:54.318Z,14.27
2022-11-12T07:13:43.177Z,16.20
2022-11-12T07:16:18.807Z,17.48
2022-11-12T07:19:05.198Z,16.15
2022-11-12T07:21:38.313Z,17.52
2022-11-12T07:24:25.287Z,18.55
2022-11-12T07:27:05.201Z,18.15
2022-11-12T07:29:59.252Z,19.40
2022-11-12T07:32:56.250Z,18.30
2022-11-12T07:35:43.176Z,18.40
2022-11-12T07:38:17.494Z,18.27
2022-11-12T07:41:16.221Z,18.88
2022-11-12T07:43:51.296Z,17.17
2022-11-12T07:46:40.220Z,17.05
2022-11-12T07:49:13.300Z,17.52
2022-11-12T07:52:03.250Z,16.77
2022-11-12T07:54:43.198Z,17.35
2022-11-12T07:57:30.221Z,17.77
2022-11-12T08:00:03.930Z,17.95
2022-11-12T08:02:50.221Z,17.48
2022-11-12T08:05:30.222Z,17.67
2022-11-12T08:08:18.222Z,18.70
2022-11-12T08:10:58.225Z,19.17
2022-11-12T08:13:52.226Z,18.02
2022-11-12T08:16:39.245Z,17.73
2022-11-12T08:19:19.297Z,18.58
2022-11-12T08:22:13.264Z,17.65
2022-11-12T08:25:00.223Z,16.92
2022-11-12T08:27:40.320Z,16.70
2022-11-12T08:30:27.257Z,17.63
2022-11-12T08:33:08.316Z,18.30
2022-11-12T08:35:55.257Z,17.95
2022-11-12T08:38:28.570Z,17.75
2022-11-12T08:41:17.264Z,17.48
2022-11-12T08:43:57.256Z,17.23
2022-11-12T08:46:51.251Z,15.40
2022-11-12T08:49:38.228Z,23.08
2022-11-12T08:52:14.249Z,15.75
2022-11-12T08:55:01.255Z,14.45
2022-11-12T08:57:35.835Z,14.70
2022-11-12T09:00:22.225Z,15.23
2022-11-12T09:02:55.374Z,15.75
2022-11-12T09:05:42.228Z,15.68
2022-11-12T09:08:18.389Z,14.25
2022-11-12T09:11:05.318Z,14.82
2022-11-12T09:13:45.327Z,14.73
2022-11-12T09:16:39.247Z,14.68
2022-11-12T09:19:33.263Z,14.30
2022-11-12T09:22:27.343Z,15.10
2022-11-12T09:25:21.260Z,16.23
2022-11-12T09:28:24.194Z,16.60
2022-11-12T09:30:59.375Z,15.10
2022-11-12T09:33:46.246Z,15.63
2022-11-12T09:36:26.242Z,16.48
2022-11-12T09:39:13.265Z,16.60
2022-11-12T09:41:48.365Z,16.75
2022-11-12T09:44:40.008Z,16.48
2022-11-12T09:47:33.379Z,15.70
2022-11-12T09:50:32.248Z,17.15
2022-11-12T09:53:20.078Z,17.65
2022-11-12T09:56:12.255Z,15.90
2022-11-12T09:58:52.238Z,17.75
2022-11-12T10:02:10.269Z,16.20
2022-11-12T10:05:17.972Z,17.05
2022-11-12T10:08:19.305Z,15.25
2022-11-12T10:11:32.150Z,15.00
2022-11-12T10:14:25.318Z,16.20
2022-11-12T10:17:15.375Z,15.30
2022-11-12T10:20:23.310Z,14.98
2022-11-12T10:23:29.312Z,16.45
2022-11-12T10:26:24.327Z,16.25
2022-11-12T10:29:06.160Z,15.20
2022-11-12T10:31:53.293Z,13.88
2022-11-12T10:34:36.255Z,13.93
2022-11-12T10:37:37.308Z,14.07
2022-11-12T10:40:27.297Z,13.95
2022-11-12T10:43:17.306Z,15.90
2022-11-12T10:46:29.310Z,15.00
2022-11-12T10:49:09.416Z,14.77
2022-11-12T10:52:04.347Z,17.30
2022-11-12T10:54:54.963Z,16.52
2022-11-12T10:57:49.292Z,16.30
2022-11-12T11:00:36.325Z,15.68
2022-11-12T11:03:35.315Z,15.93
2022-11-12T11:06:22.321Z,16.75
2022-11-12T11:09:29.309Z,14.65
2022-11-12T11:12:33.298Z,14.88
2022-11-12T11:15:12.366Z,15.55
2022-11-12T11:17:59.367Z,15.35
2022-11-12T11:20:38.419Z,15.70
2022-11-12T11:23:33.292Z,15.85
2022-11-12T11:26:26.443Z,15.48
2022-11-12T11:29:28.321Z,15.10
2022-11-12T11:32:25.419Z,15.48
2022-11-12T11:35:27.291Z,15.55
2022-11-12T11:38:44.320Z,14.68
2022-11-12T11:42:05.304Z,14.35
2022-11-12T11:45:29.358Z,16.50
2022-11-12T11:48:28.813Z,20.45
2022-11-12T11:51:40.373Z,17.40
2022-11-12T11:54:48.401Z,16.05
2022-11-12T11:57:40.328Z,19.02
2022-11-12T12:00:26.420Z,19.02
2022-11-12T12:03:34.397Z,19.25
2022-11-12T12:06:10.412Z,17.70
2022-11-12T12:09:36.323Z,18.15
2022-11-12T12:12:24.637Z,17.88
2022-11-12T12:15:33.350Z,19.13
2022-11-12T12:18:32.429Z,19.00
2022-11-12T12:21:23.350Z,20.40
2022-11-12T12:24:29.375Z,20.73
2022-11-12T12:27:32.368Z,19.25
2022-11-12T12:30:10.406Z,19.20
2022-11-12T12:33:15.843Z,19.65
2022-11-12T12:36:24.449Z,19.45
2022-11-12T12:39:18.369Z,18.77
2022-11-12T12:42:02.408Z,20.00
2022-11-12T12:45:08.370Z,19.95
2022-11-12T12:47:46.440Z,21.52
2022-11-12T12:50:34.373Z,19.73
2022-11-12T12:53:22.414Z,23.77
2022-11-12T12:56:12.379Z,19.58
2022-11-12T12:58:55.486Z,29.13
2022-11-12T13:01:43.367Z,30.92
2022-11-12T13:04:16.414Z,28.75
2022-11-12T13:07:08.606Z,14.05
2022-11-12T13:09:44.407Z,13.77
2022-11-12T13:13:09.355Z,19.17
2022-11-12T13:16:00.369Z,19.15
2022-11-12T13:18:54.369Z,17.67
2022-11-12T13:21:48.378Z,15.52
2022-11-12T13:25:07.375Z,15.50
2022-11-12T13:27:53.359Z,17.73
2022-11-12T13:30:40.369Z,18.63
2022-11-12T13:33:33.557Z,19.83
2022-11-12T13:36:32.374Z,16.73
2022-11-12T13:39:19.434Z,15.98
2022-11-12T13:42:25.366Z,16.45
2022-11-12T13:44:58.416Z,14.23
2022-11-12T13:47:45.361Z,14.48
2022-11-12T13:50:25.432Z,15.57
2022-11-12T13:53:17.358Z,19.33
2022-11-12T13:55:58.468Z,15.75
2022-11-12T13:58:50.368Z,16.08
2022-11-12T14:01:27.540Z,14.63
2022-11-12T14:04:18.368Z,14.30
2022-11-12T14:06:58.527Z,13.80
2022-11-12T14:10:04.375Z,13.60
2022-11-12T14:12:44.373Z,14.07
2022-11-12T14:16:13.388Z,13.18
2022-11-12T14:19:32.373Z,12.82
2022-11-12T14:22:27.368Z,13.70
2022-11-12T14:25:24.442Z,15.32
2022-11-12T14:28:08.428Z,14.68
2022-11-12T14:31:02.367Z,14.95
2022-11-12T14:33:49.394Z,13.25
2022-11-12T14:36:24.475Z,13.30
2022-11-12T14:39:13.380Z,14.77
2022-11-12T14:41:57.381Z,13.48
2022-11-12T14:44:45.367Z,14.60
2022-11-12T14:47:18.951Z,14.60
2022-11-12T14:50:05.388Z,15.85
2022-11-12T14:52:50.417Z,18.63
2022-11-12T14:55:47.412Z,21.08
2022-11-12T14:58:35.369Z,27.13
2022-11-12T15:02:21.750Z,29.35
2022-11-12T15:04:52.699Z,30.63
2022-11-12T15:08:10.444Z,32.75
2022-11-12T15:11:04.421Z,30.25
2022-11-12T15:13:52.423Z,28.77
2022-11-12T15:16:29.490Z,27.30
2022-11-12T15:19:24.426Z,27.38
2022-11-12T15:22:04.497Z,28.60
2022-11-12T15:24:52.490Z,25.48
2022-11-12T15:27:47.536Z,22.33
2022-11-12T15:30:37.402Z,21.73
2022-11-12T15:33:17.530Z,24.65
2022-11-12T15:36:06.419Z,23.48
2022-11-12T15:38:42.489Z,20.27
2022-11-12T15:41:33.394Z,19.77
2022-11-12T15:44:06.451Z,22.92
2022-11-12T15:46:53.399Z,25.08
2022-11-12T15:49:26.486Z,23.27
2022-11-12T15:52:13.470Z,22.25
2022-11-12T15:54:46.529Z,22.73
2022-11-12T15:57:36.425Z,22.98
2022-11-12T16:00:36.510Z,24.42
2022-11-12T16:03:27.664Z,21.85
2022-11-12T16:06:07.198Z,23.77
2022-11-12T16:08:55.438Z,21.55
2022-11-12T16:11:37.635Z,22.83
2022-11-12T16:14:25.125Z,23.35
2022-11-12T16:16:58.518Z,20.88
2022-11-12T16:19:45.421Z,21.75
2022-11-12T16:22:18.683Z,21.27
2022-11-12T16:25:05.436Z,26.33
2022-11-12T16:27:45.434Z,26.27
2022-11-12T16:30:37.439Z,23.85
2022-11-12T16:33:10.550Z,21.88
2022-11-12T16:35:57.430Z,23.83
2022-11-12T16:38:30.534Z,23.98
2022-11-12T16:41:18.435Z,22.35
2022-11-12T16:43:58.451Z,21.13
2022-11-12T16:46:53.421Z,21.17
2022-11-12T16:49:38.417Z,22.17
2022-11-12T16:52:25.429Z,22.42
2022-11-12T16:55:12.428Z,24.92
2022-11-12T16:57:52.451Z,27.10
2022-11-12T17:00:46.448Z,24.42
2022-11-12T17:03:33.443Z,24.77
2022-11-12T17:06:06.557Z,23.35
2022-11-12T17:08:54.441Z,24.92
2022-11-12T17:11:27.507Z,23.15
2022-11-12T17:14:14.469Z,27.00
2022-11-12T17:16:47.611Z,25.92
2022-11-12T17:19:34.460Z,26.52
2022-11-12T17:22:14.524Z,26.17
2022-11-12T17:25:08.462Z,30.55
2022-11-12T17:28:02.454Z,26.98
2022-11-12T17:30:49.443Z,27.45
2022-11-12T17:33:22.519Z,27.10
2022-11-12T17:36:10.457Z,24.80
2022-11-12T17:38:50.456Z,26.85
2022-11-12T17:41:44.451Z,25.42
2022-11-12T17:44:31.451Z,27.10
2022-11-12T17:47:11.452Z,26.48
2022-11-12T17:50:05.472Z,27.48
2022-11-12T17:52:45.461Z,25.88
2022-11-12T17:55:25.464Z,28.92
2022-11-12T17:57:58.549Z,25.85
2022-11-12T18:00:45.501Z,29.40
2022-11-12T18:03:18.534Z,29.17
2022-11-12T18:06:06.468Z,27.95
2022-11-12T18:08:39.593Z,26.30
2022-11-12T18:11:26.476Z,27.05
2022-11-12T18:14:06.450Z,27.27
2022-11-12T18:16:53.469Z,26.52
2022-11-12T18:19:33.472Z,27.77
2022-11-12T18:22:28.487Z,27.50
2022-11-12T18:25:16.452Z,28.40
2022-11-12T18:27:49.594Z,27.20
2022-11-12T18:30:36.473Z,27.63
2022-11-12T18:33:09.570Z,26.83
2022-11-12T18:36:06.494Z,27.25
2022-11-12T18:38:41.569Z,27.30
2022-11-12T18:41:32.480Z,27.40
2022-11-12T18:44:26.176Z,28.88
2022-11-12T18:47:13.502Z,28.55
2022-11-12T18:49:54.469Z,28.73
2022-11-12T18:52:48.473Z,30.63
2022-11-12T18:55:35.504Z,29.95
2022-11-12T18:58:15.486Z,29.33
2022-11-12T19:01:02.555Z,32.15
2022-11-12T19:03:42.495Z,32.03
2022-11-12T19:06:32.501Z,31.48
2022-11-12T19:09:16.454Z,33.05
2022-11-12T19:12:10.482Z,34.65
2022-11-12T19:14:57.493Z,29.98
2022-11-12T19:17:31.243Z,32.72
2022-11-12T19:20:18.505Z,31.63
2022-11-12T19:22:51.570Z,31.73
2022-11-12T19:25:40.496Z,31.65
2022-11-12T19:28:13.596Z,33.63
2022-11-12T19:31:00.475Z,30.83
2022-11-12T19:33:33.596Z,32.13
2022-11-12T19:36:22.497Z,31.65
2022-11-12T19:39:06.597Z,32.03
2022-11-12T19:41:53.496Z,33.65
2022-11-12T19:44:26.532Z,32.22
2022-11-12T19:47:13.525Z,30.42
2022-11-12T19:49:46.615Z,32.95
2022-11-12T19:52:33.527Z,33.42
2022-11-12T19:55:06.585Z,32.92
2022-11-12T19:57:53.498Z,34.38
2022-11-12T20:00:26.592Z,34.78
2022-11-12T20:03:13.523Z,34.92
2022-11-12T20:05:46.612Z,32.95
2022-11-12T20:08:33.516Z,32.20
2022-11-12T20:11:07.576Z,31.95
2022-11-12T20:13:54.525Z,31.67
2022-11-12T20:16:34.520Z,31.75
2022-11-12T20:19:28.524Z,30.98
2022-11-12T20:22:32.103Z,32.05
2022-11-12T20:25:26.538Z,30.60
2022-11-12T20:28:13.544Z,27.83
2022-11-12T20:30:46.602Z,31.40
2022-11-12T20:33:37.880Z,33.38
2022-11-12T20:36:20.041Z,31.98
2022-11-12T20:39:06.539Z,31.90
2022-11-12T20:41:40.883Z,31.25
2022-11-12T20:44:27.535Z,31.52
2022-11-12T20:47:01.539Z,34.05
2022-11-12T20:49:48.523Z,33.60
2022-11-12T20:52:21.610Z,32.13
2022-11-12T20:55:08.512Z,33.70
2022-11-12T20:57:41.608Z,31.88
2022-11-12T21:00:29.547Z,33.03
2022-11-12T21:03:02.601Z,32.30
2022-11-12T21:05:49.526Z,33.13
2022-11-12T21:08:29.827Z,31.90
2022-11-12T21:11:26.553Z,28.50
2022-11-12T21:14:07.544Z,26.17
2022-11-12T21:16:47.554Z,27.38
2022-11-12T21:19:20.668Z,29.60
2022-11-12T21:22:14.528Z,29.27
2022-11-12T21:25:08.538Z,28.52
2022-11-12T21:27:55.524Z,27.52
2022-11-12T21:30:28.627Z,27.27
2022-11-12T21:33:15.551Z,26.67
2022-11-12T21:35:48.606Z,27.52
2022-11-12T21:38:35.561Z,28.42
2022-11-12T21:41:11.670Z,31.35
2022-11-12T21:43:58.651Z,29.95
2022-11-12T21:46:37.974Z,28.08
2022-11-12T21:49:24.566Z,28.52
2022-11-12T21:51:57.659Z,28.90
2022-11-12T21:54:44.531Z,28.90
2022-11-12T21:57:18.859Z,31.85
2022-11-12T22:00:39.127Z,30.40
2022-11-12T22:03:01.650Z,28.95
2022-11-12T22:05:48.557Z,31.15
2022-11-12T22:08:21.641Z,30.13
2022-11-12T22:11:15.553Z,31.50
2022-11-12T22:13:56.585Z,32.33
2022-11-12T22:16:43.574Z,30.92
2022-11-12T22:19:23.561Z,33.42
2022-11-12T22:22:17.569Z,32.65
2022-11-12T22:25:04.592Z,28.35
2022-11-12T22:27:37.653Z,32.38
2022-11-12T22:30:24.569Z,31.40
2022-11-12T22:32:57.637Z,53.15
2022-11-12T22:35:44.587Z,51.10
2022-11-12T22:38:24.708Z,42.08
2022-11-12T22:41:14.601Z,33.17
2022-11-12T22:43:48.702Z,35.42
2022-11-12T22:46:36.575Z,44.47
2022-11-12T22:49:10.878Z,44.63
2022-11-12T22:51:57.586Z,43.55
2022-11-12T22:54:37.603Z,46.58
2022-11-12T22:57:31.587Z,51.42
2022-11-12T23:00:19.565Z,43.50
2022-11-12T23:02:59.600Z,39.50
2022-11-12T23:05:48.589Z,41.22
2022-11-12T23:08:21.661Z,38.00
2022-11-12T23:11:10.587Z,37.05
2022-11-12T23:13:44.739Z,34.80
2022-11-12T23:16:36.575Z,32.92
2022-11-12T23:19:16.581Z,35.75
2022-11-12T23:22:10.583Z,48.17
2022-11-12T23:24:57.586Z,94.38
2022-11-12T23:27:30.674Z,61.47
2022-11-12T23:30:17.605Z,40.55
2022-11-12T23:32:50.677Z,40.25
2022-11-12T23:35:37.621Z,45.88
2022-11-12T23:38:10.670Z,53.97
2022-11-12T23:41:03.586Z,41.10
2022-11-12T23:43:44.601Z,37.33
2022-11-12T23:46:31.605Z,38.83
2022-11-12T23:49:04.679Z,45.70
2022-11-12T23:51:51.589Z,58.67
2022-11-12T23:54:24.678Z,50.22
2022-11-12T23:57:11.607Z,46.55
2022-11-12T23:59:51.622Z,43.30
